sensor_id;sensor_type;location;lat;lon;timestamp;temperature;humidity
19999;DHT22;10160;50.926;4.374;2023-08-12T00:01:38;21.10;99.90
19999;DHT22;10160;50.926;4.374;2023-08-12T00:04:07;21.30;99.90
19999;DHT22;10160;50.926;4.374;2023-08-12T00:06:33;21.30;99.90
19999;DHT22;10160;50.926;4.374;2023-08-12T00:08:58;21.20;99.90
19999;DHT22;10160;50.926;4.374;2023-08-12T00:11:29;21.20;99.90
19999;DHT22;10160;50.926;4.374;2023-08-12T00:13:54;21.30;99.90
19999;DHT22;10160;50.926;4.374;2023-08-12T00:16:20;21.20;99.90
19999;DHT22;10160;50.926;4.374;2023-08-12T00:18:46;21.10;99.90
19999;DHT22;10160;50.926;4.374;2023-08-12T00:21:11;21.10;99.90
19999;DHT22;10160;50.926;4.374;2023-08-12T00:23:39;21.10;99.90
19999;DHT22;10160;50.926;4.374;2023-08-12T00:26:09;21.10;99.90
19999;DHT22;10160;50.926;4.374;2023-08-12T00:28:36;21.00;99.90
19999;DHT22;10160;50.926;4.374;2023-08-12T00:31:01;21.20;99.90
19999;DHT22;10160;50.926;4.374;2023-08-12T00:33:27;21.30;99.90
19999;DHT22;10160;50.926;4.374;2023-08-12T00:35:53;21.20;99.90
19999;DHT22;10160;50.926;4.374;2023-08-12T00:38:18;21.20;99.90
19999;DHT22;10160;50.926;4.374;2023-08-12T00:40:44;21.20;99.90
19999;DHT22;10160;50.926;4.374;2023-08-12T00:43:10;20.90;99.90
19999;DHT22;10160;50.926;4.374;2023-08-12T00:45:35;20.90;99.90
19999;DHT22;10160;50.926;4.374;2023-08-12T00:48:05;20.90;99.90
19999;DHT22;10160;50.926;4.374;2023-08-12T00:50:31;20.90;99.90
19999;DHT22;10160;50.926;4.374;2023-08-12T00:52:58;21.00;99.90
19999;DHT22;10160;50.926;4.374;2023-08-12T00:55:27;21.00;99.90
19999;DHT22;10160;50.926;4.374;2023-08-12T00:57:52;21.10;99.90
19999;DHT22;10160;50.926;4.374;2023-08-12T01:00:19;21.10;99.90
19999;DHT22;10160;50.926;4.374;2023-08-12T01:02:47;21.10;99.90
19999;DHT22;10160;50.926;4.374;2023-08-12T01:05:14;21.20;99.90
19999;DHT22;10160;50.926;4.374;2023-08-12T01:07:41;21.20;99.90
19999;DHT22;10160;50.926;4.374;2023-08-12T01:10:10;21.20;99.90
19999;DHT22;10160;50.926;4.374;2023-08-12T01:15:41;21.10;99.90
19999;DHT22;10160;50.926;4.374;2023-08-12T01:18:10;20.80;99.90
19999;DHT22;10160;50.926;4.374;2023-08-12T01:20:36;20.70;99.90
19999;DHT22;10160;50.926;4.374;2023-08-12T01:23:15;20.70;99.90
19999;DHT22;10160;50.926;4.374;2023-08-12T01:25:41;20.60;99.90
19999;DHT22;10160;50.926;4.374;2023-08-12T01:28:07;20.60;99.90
19999;DHT22;10160;50.926;4.374;2023-08-12T01:31:05;20.70;99.90
19999;DHT22;10160;50.926;4.374;2023-08-12T01:33:49;20.80;99.90
19999;DHT22;10160;50.926;4.374;2023-08-12T01:36:19;21.00;99.90
19999;DHT22;10160;50.926;4.374;2023-08-12T01:38:47;21.10;99.90
19999;DHT22;10160;50.926;4.374;2023-08-12T01:41:16;21.00;99.90
19999;DHT22;10160;50.926;4.374;2023-08-12T01:43:47;21.10;99.90
19999;DHT22;10160;50.926;4.374;2023-08-12T01:46:18;21.10;99.90
19999;DHT22;10160;50.926;4.374;2023-08-12T01:48:44;21.20;99.90
19999;DHT22;10160;50.926;4.374;2023-08-12T01:51:11;21.10;99.90
19999;DHT22;10160;50.926;4.374;2023-08-12T01:53:37;21.00;99.90
19999;DHT22;10160;50.926;4.374;2023-08-12T01:56:02;20.90;99.90
19999;DHT22;10160;50.926;4.374;2023-08-12T01:58:28;20.90;99.90
19999;DHT22;10160;50.926;4.374;2023-08-12T02:00:54;20.90;99.90
19999;DHT22;10160;50.926;4.374;2023-08-12T02:03:19;21.10;99.90
19999;DHT22;10160;50.926;4.374;2023-08-12T02:05:45;21.30;99.90
19999;DHT22;10160;50.926;4.374;2023-08-12T02:08:11;21.50;99.90
19999;DHT22;10160;50.926;4.374;2023-08-12T02:10:37;21.50;99.90
19999;DHT22;10160;50.926;4.374;2023-08-12T02:13:02;21.60;99.90
19999;DHT22;10160;50.926;4.374;2023-08-12T02:15:28;21.60;99.90
19999;DHT22;10160;50.926;4.374;2023-08-12T02:17:54;21.70;99.90
19999;DHT22;10160;50.926;4.374;2023-08-12T02:20:20;21.70;99.90
19999;DHT22;10160;50.926;4.374;2023-08-12T02:22:45;21.60;99.90
19999;DHT22;10160;50.926;4.374;2023-08-12T02:25:11;21.70;99.90
19999;DHT22;10160;50.926;4.374;2023-08-12T02:27:37;21.70;99.90
19999;DHT22;10160;50.926;4.374;2023-08-12T02:30:04;21.80;99.90
19999;DHT22;10160;50.926;4.374;2023-08-12T02:32:30;21.80;99.90
19999;DHT22;10160;50.926;4.374;2023-08-12T02:34:56;21.80;99.90
19999;DHT22;10160;50.926;4.374;2023-08-12T02:37:21;22.00;99.90
19999;DHT22;10160;50.926;4.374;2023-08-12T02:39:47;21.80;99.90
19999;DHT22;10160;50.926;4.374;2023-08-12T02:42:13;21.90;99.90
19999;DHT22;10160;50.926;4.374;2023-08-12T02:44:38;21.80;99.90
19999;DHT22;10160;50.926;4.374;2023-08-12T02:47:04;21.80;99.90
19999;DHT22;10160;50.926;4.374;2023-08-12T02:49:30;21.70;99.90
19999;DHT22;10160;50.926;4.374;2023-08-12T02:51:55;21.60;99.90
19999;DHT22;10160;50.926;4.374;2023-08-12T02:54:21;21.60;99.90
19999;DHT22;10160;50.926;4.374;2023-08-12T02:56:47;21.40;99.90
19999;DHT22;10160;50.926;4.374;2023-08-12T02:59:12;21.40;99.90
19999;DHT22;10160;50.926;4.374;2023-08-12T03:01:41;21.30;99.90
19999;DHT22;10160;50.926;4.374;2023-08-12T03:04:06;21.20;99.90
19999;DHT22;10160;50.926;4.374;2023-08-12T03:06:32;21.20;99.90
19999;DHT22;10160;50.926;4.374;2023-08-12T03:08:58;21.20;99.90
19999;DHT22;10160;50.926;4.374;2023-08-12T03:11:24;21.30;99.90
19999;DHT22;10160;50.926;4.374;2023-08-12T03:13:50;21.30;99.90
19999;DHT22;10160;50.926;4.374;2023-08-12T03:16:15;21.30;99.90
19999;DHT22;10160;50.926;4.374;2023-08-12T03:18:41;21.30;99.90
19999;DHT22;10160;50.926;4.374;2023-08-12T03:21:08;21.20;99.90
19999;DHT22;10160;50.926;4.374;2023-08-12T03:23:37;21.10;99.90
19999;DHT22;10160;50.926;4.374;2023-08-12T03:26:03;21.00;99.90
19999;DHT22;10160;50.926;4.374;2023-08-12T03:28:30;21.00;99.90
19999;DHT22;10160;50.926;4.374;2023-08-12T03:30:56;21.10;99.90
19999;DHT22;10160;50.926;4.374;2023-08-12T03:33:22;21.10;99.90
19999;DHT22;10160;50.926;4.374;2023-08-12T03:35:48;21.10;99.90
19999;DHT22;10160;50.926;4.374;2023-08-12T03:38:15;21.10;99.90
19999;DHT22;10160;50.926;4.374;2023-08-12T03:40:41;20.80;99.90
19999;DHT22;10160;50.926;4.374;2023-08-12T03:43:08;20.90;99.90
19999;DHT22;10160;50.926;4.374;2023-08-12T03:45:42;20.90;99.90
19999;DHT22;10160;50.926;4.374;2023-08-12T03:48:09;20.90;99.90
19999;DHT22;10160;50.926;4.374;2023-08-12T03:50:38;20.80;99.90
19999;DHT22;10160;50.926;4.374;2023-08-12T03:53:07;20.90;99.90
19999;DHT22;10160;50.926;4.374;2023-08-12T03:55:34;20.90;99.90
19999;DHT22;10160;50.926;4.374;2023-08-12T03:58:01;20.70;99.90
19999;DHT22;10160;50.926;4.374;2023-08-12T04:00:27;21.00;99.90
19999;DHT22;10160;50.926;4.374;2023-08-12T04:02:53;20.90;99.90
19999;DHT22;10160;50.926;4.374;2023-08-12T04:05:19;20.90;99.90
19999;DHT22;10160;50.926;4.374;2023-08-12T04:07:44;20.60;99.90
19999;DHT22;10160;50.926;4.374;2023-08-12T04:10:13;20.40;99.90
19999;DHT22;10160;50.926;4.374;2023-08-12T04:12:40;20.40;99.90
19999;DHT22;10160;50.926;4.374;2023-08-12T04:15:08;20.50;99.90
19999;DHT22;10160;50.926;4.374;2023-08-12T04:17:33;20.40;99.90
19999;DHT22;10160;50.926;4.374;2023-08-12T04:19:59;20.40;99.90
19999;DHT22;10160;50.926;4.374;2023-08-12T04:22:25;20.40;99.90
19999;DHT22;10160;50.926;4.374;2023-08-12T04:24:51;20.30;99.90
19999;DHT22;10160;50.926;4.374;2023-08-12T04:27:17;20.20;99.90
19999;DHT22;10160;50.926;4.374;2023-08-12T04:29:43;20.30;99.90
19999;DHT22;10160;50.926;4.374;2023-08-12T04:32:11;20.30;99.90
19999;DHT22;10160;50.926;4.374;2023-08-12T04:34:37;20.20;99.90
19999;DHT22;10160;50.926;4.374;2023-08-12T04:37:02;20.20;99.90
19999;DHT22;10160;50.926;4.374;2023-08-12T04:39:28;20.20;99.90
19999;DHT22;10160;50.926;4.374;2023-08-12T04:41:54;20.10;99.90
19999;DHT22;10160;50.926;4.374;2023-08-12T04:44:19;20.20;99.90
19999;DHT22;10160;50.926;4.374;2023-08-12T04:46:45;20.20;99.90
19999;DHT22;10160;50.926;4.374;2023-08-12T04:49:12;20.30;99.90
19999;DHT22;10160;50.926;4.374;2023-08-12T04:51:37;20.20;99.90
19999;DHT22;10160;50.926;4.374;2023-08-12T04:54:04;20.30;99.90
19999;DHT22;10160;50.926;4.374;2023-08-12T04:56:29;20.30;99.90
19999;DHT22;10160;50.926;4.374;2023-08-12T04:58:55;20.20;99.90
19999;DHT22;10160;50.926;4.374;2023-08-12T05:01:21;20.20;99.90
19999;DHT22;10160;50.926;4.374;2023-08-12T05:03:47;20.10;99.90
19999;DHT22;10160;50.926;4.374;2023-08-12T05:06:13;20.10;99.90
19999;DHT22;10160;50.926;4.374;2023-08-12T05:08:38;20.20;99.90
19999;DHT22;10160;50.926;4.374;2023-08-12T05:11:04;20.10;99.90
19999;DHT22;10160;50.926;4.374;2023-08-12T05:13:29;20.20;99.90
19999;DHT22;10160;50.926;4.374;2023-08-12T05:15:56;20.10;99.90
19999;DHT22;10160;50.926;4.374;2023-08-12T05:18:22;20.20;99.90
19999;DHT22;10160;50.926;4.374;2023-08-12T05:20:52;20.20;99.90
19999;DHT22;10160;50.926;4.374;2023-08-12T05:23:21;20.20;99.90
19999;DHT22;10160;50.926;4.374;2023-08-12T05:25:47;20.40;99.90
19999;DHT22;10160;50.926;4.374;2023-08-12T05:28:12;20.30;99.90
19999;DHT22;10160;50.926;4.374;2023-08-12T05:30:38;20.40;99.90
19999;DHT22;10160;50.926;4.374;2023-08-12T05:33:04;20.20;99.90
19999;DHT22;10160;50.926;4.374;2023-08-12T05:35:34;20.30;99.90
19999;DHT22;10160;50.926;4.374;2023-08-12T05:38:00;20.30;99.90
19999;DHT22;10160;50.926;4.374;2023-08-12T05:40:26;20.40;99.90
19999;DHT22;10160;50.926;4.374;2023-08-12T05:42:51;20.40;99.90
19999;DHT22;10160;50.926;4.374;2023-08-12T05:45:17;20.50;99.90
19999;DHT22;10160;50.926;4.374;2023-08-12T05:47:43;20.50;99.90
19999;DHT22;10160;50.926;4.374;2023-08-12T05:50:08;20.60;99.90
19999;DHT22;10160;50.926;4.374;2023-08-12T05:52:34;20.50;99.90
19999;DHT22;10160;50.926;4.374;2023-08-12T05:55:00;20.50;99.90
19999;DHT22;10160;50.926;4.374;2023-08-12T05:57:26;20.50;99.90
19999;DHT22;10160;50.926;4.374;2023-08-12T05:59:51;20.40;99.90
19999;DHT22;10160;50.926;4.374;2023-08-12T06:02:17;20.50;99.90
19999;DHT22;10160;50.926;4.374;2023-08-12T06:04:47;20.60;99.90
19999;DHT22;10160;50.926;4.374;2023-08-12T06:07:15;20.50;99.90
19999;DHT22;10160;50.926;4.374;2023-08-12T06:09:41;20.40;99.90
19999;DHT22;10160;50.926;4.374;2023-08-12T06:12:07;20.50;99.90
19999;DHT22;10160;50.926;4.374;2023-08-12T06:14:37;20.60;99.90
19999;DHT22;10160;50.926;4.374;2023-08-12T06:17:04;20.50;99.90
19999;DHT22;10160;50.926;4.374;2023-08-12T06:19:32;20.50;99.90
19999;DHT22;10160;50.926;4.374;2023-08-12T06:22:01;20.40;99.90
19999;DHT22;10160;50.926;4.374;2023-08-12T06:24:26;20.50;99.90
19999;DHT22;10160;50.926;4.374;2023-08-12T06:26:52;20.60;99.90
19999;DHT22;10160;50.926;4.374;2023-08-12T06:29:18;20.60;99.90
19999;DHT22;10160;50.926;4.374;2023-08-12T06:31:43;20.60;99.90
19999;DHT22;10160;50.926;4.374;2023-08-12T06:34:09;20.60;99.90
19999;DHT22;10160;50.926;4.374;2023-08-12T06:36:34;20.60;99.90
19999;DHT22;10160;50.926;4.374;2023-08-12T06:39:00;20.60;99.90
19999;DHT22;10160;50.926;4.374;2023-08-12T06:41:26;20.60;99.90
19999;DHT22;10160;50.926;4.374;2023-08-12T06:43:51;20.60;99.90
19999;DHT22;10160;50.926;4.374;2023-08-12T06:46:17;20.50;99.90
19999;DHT22;10160;50.926;4.374;2023-08-12T06:48:43;20.50;99.90
19999;DHT22;10160;50.926;4.374;2023-08-12T06:51:08;20.60;99.90
19999;DHT22;10160;50.926;4.374;2023-08-12T06:53:37;20.70;99.90
19999;DHT22;10160;50.926;4.374;2023-08-12T06:56:03;20.70;99.90
19999;DHT22;10160;50.926;4.374;2023-08-12T06:58:29;20.80;99.90
19999;DHT22;10160;50.926;4.374;2023-08-12T07:00:57;20.80;99.90
19999;DHT22;10160;50.926;4.374;2023-08-12T07:03:24;20.70;99.90
19999;DHT22;10160;50.926;4.374;2023-08-12T07:05:52;20.70;99.90
19999;DHT22;10160;50.926;4.374;2023-08-12T07:08:18;20.70;99.90
19999;DHT22;10160;50.926;4.374;2023-08-12T07:10:46;20.80;99.90
19999;DHT22;10160;50.926;4.374;2023-08-12T07:13:12;20.60;99.90
19999;DHT22;10160;50.926;4.374;2023-08-12T07:15:37;20.80;99.90
19999;DHT22;10160;50.926;4.374;2023-08-12T07:18:03;20.80;99.90
19999;DHT22;10160;50.926;4.374;2023-08-12T07:20:29;20.70;99.90
19999;DHT22;10160;50.926;4.374;2023-08-12T07:22:55;20.80;99.90
19999;DHT22;10160;50.926;4.374;2023-08-12T07:25:21;20.90;99.90
19999;DHT22;10160;50.926;4.374;2023-08-12T07:27:47;20.90;99.90
19999;DHT22;10160;50.926;4.374;2023-08-12T07:30:12;20.70;99.90
19999;DHT22;10160;50.926;4.374;2023-08-12T07:32:38;20.70;99.90
19999;DHT22;10160;50.926;4.374;2023-08-12T07:35:05;20.60;99.90
19999;DHT22;10160;50.926;4.374;2023-08-12T07:37:31;20.70;99.90
19999;DHT22;10160;50.926;4.374;2023-08-12T07:40:00;20.80;99.90
19999;DHT22;10160;50.926;4.374;2023-08-12T07:42:26;20.70;99.90
19999;DHT22;10160;50.926;4.374;2023-08-12T07:44:52;20.80;99.90
19999;DHT22;10160;50.926;4.374;2023-08-12T07:47:17;20.70;99.90
19999;DHT22;10160;50.926;4.374;2023-08-12T07:49:43;20.60;99.90
19999;DHT22;10160;50.926;4.374;2023-08-12T07:52:09;20.80;99.90
19999;DHT22;10160;50.926;4.374;2023-08-12T07:54:35;20.90;99.90
19999;DHT22;10160;50.926;4.374;2023-08-12T07:57:01;20.90;99.90
19999;DHT22;10160;50.926;4.374;2023-08-12T07:59:27;20.80;99.90
19999;DHT22;10160;50.926;4.374;2023-08-12T08:01:52;20.60;99.90
19999;DHT22;10160;50.926;4.374;2023-08-12T08:04:18;20.70;99.90
19999;DHT22;10160;50.926;4.374;2023-08-12T08:06:44;20.90;99.90
19999;DHT22;10160;50.926;4.374;2023-08-12T08:09:10;21.00;99.90
19999;DHT22;10160;50.926;4.374;2023-08-12T08:11:36;21.00;99.90
19999;DHT22;10160;50.926;4.374;2023-08-12T08:14:02;21.00;99.90
19999;DHT22;10160;50.926;4.374;2023-08-12T08:16:27;20.90;99.90
19999;DHT22;10160;50.926;4.374;2023-08-12T08:18:53;20.90;99.90
19999;DHT22;10160;50.926;4.374;2023-08-12T08:21:19;20.90;99.90
19999;DHT22;10160;50.926;4.374;2023-08-12T08:23:45;20.90;99.90
19999;DHT22;10160;50.926;4.374;2023-08-12T08:26:14;21.00;99.90
19999;DHT22;10160;50.926;4.374;2023-08-12T08:28:41;21.10;99.90
19999;DHT22;10160;50.926;4.374;2023-08-12T08:31:07;21.10;99.90
19999;DHT22;10160;50.926;4.374;2023-08-12T08:33:32;21.10;99.90
19999;DHT22;10160;50.926;4.374;2023-08-12T08:35:58;21.00;99.90
19999;DHT22;10160;50.926;4.374;2023-08-12T08:38:24;21.00;99.90
19999;DHT22;10160;50.926;4.374;2023-08-12T08:40:50;21.00;99.90
19999;DHT22;10160;50.926;4.374;2023-08-12T08:43:20;21.20;99.90
19999;DHT22;10160;50.926;4.374;2023-08-12T08:45:50;21.20;99.90
19999;DHT22;10160;50.926;4.374;2023-08-12T08:48:17;21.30;99.90
19999;DHT22;10160;50.926;4.374;2023-08-12T08:50:46;21.10;99.90
19999;DHT22;10160;50.926;4.374;2023-08-12T08:53:16;21.10;99.90
19999;DHT22;10160;50.926;4.374;2023-08-12T08:55:43;21.10;99.90
19999;DHT22;10160;50.926;4.374;2023-08-12T08:58:09;21.00;99.90
19999;DHT22;10160;50.926;4.374;2023-08-12T09:00:37;21.00;99.90
19999;DHT22;10160;50.926;4.374;2023-08-12T09:03:05;21.10;99.90
19999;DHT22;10160;50.926;4.374;2023-08-12T09:05:32;21.20;99.90
19999;DHT22;10160;50.926;4.374;2023-08-12T09:07:58;21.60;99.90
19999;DHT22;10160;50.926;4.374;2023-08-12T09:10:27;22.10;99.90
19999;DHT22;10160;50.926;4.374;2023-08-12T09:12:56;22.20;99.90
19999;DHT22;10160;50.926;4.374;2023-08-12T09:15:22;21.90;99.90
19999;DHT22;10160;50.926;4.374;2023-08-12T09:17:50;21.80;99.90
19999;DHT22;10160;50.926;4.374;2023-08-12T09:20:19;21.80;99.90
19999;DHT22;10160;50.926;4.374;2023-08-12T09:22:45;21.80;99.90
19999;DHT22;10160;50.926;4.374;2023-08-12T09:25:11;21.80;99.90
19999;DHT22;10160;50.926;4.374;2023-08-12T09:27:37;21.80;99.90
19999;DHT22;10160;50.926;4.374;2023-08-12T09:30:09;21.70;99.90
19999;DHT22;10160;50.926;4.374;2023-08-12T09:32:35;21.90;99.90
19999;DHT22;10160;50.926;4.374;2023-08-12T09:35:15;21.80;99.90
19999;DHT22;10160;50.926;4.374;2023-08-12T09:37:41;21.90;99.90
19999;DHT22;10160;50.926;4.374;2023-08-12T09:40:08;21.90;99.90
19999;DHT22;10160;50.926;4.374;2023-08-12T09:42:44;21.90;99.90
19999;DHT22;10160;50.926;4.374;2023-08-12T09:45:13;21.80;99.90
19999;DHT22;10160;50.926;4.374;2023-08-12T09:47:44;21.90;99.90
19999;DHT22;10160;50.926;4.374;2023-08-12T09:50:09;22.00;99.90
19999;DHT22;10160;50.926;4.374;2023-08-12T09:52:35;21.80;99.90
19999;DHT22;10160;50.926;4.374;2023-08-12T09:55:02;22.00;99.90
19999;DHT22;10160;50.926;4.374;2023-08-12T09:57:33;22.20;99.90
19999;DHT22;10160;50.926;4.374;2023-08-12T10:00:09;22.30;99.90
19999;DHT22;10160;50.926;4.374;2023-08-12T10:02:43;22.30;99.90
19999;DHT22;10160;50.926;4.374;2023-08-12T10:05:12;22.00;99.90
19999;DHT22;10160;50.926;4.374;2023-08-12T10:07:39;21.90;99.90
19999;DHT22;10160;50.926;4.374;2023-08-12T10:10:06;21.70;99.90
19999;DHT22;10160;50.926;4.374;2023-08-12T10:12:39;21.70;99.90
19999;DHT22;10160;50.926;4.374;2023-08-12T10:15:11;21.70;99.90
19999;DHT22;10160;50.926;4.374;2023-08-12T10:17:43;21.50;99.90
19999;DHT22;10160;50.926;4.374;2023-08-12T10:20:13;21.50;99.90
19999;DHT22;10160;50.926;4.374;2023-08-12T10:22:39;21.90;99.90
19999;DHT22;10160;50.926;4.374;2023-08-12T10:25:07;22.20;99.90
19999;DHT22;10160;50.926;4.374;2023-08-12T10:27:37;22.40;99.90
19999;DHT22;10160;50.926;4.374;2023-08-12T10:30:13;22.20;99.90
19999;DHT22;10160;50.926;4.374;2023-08-12T10:32:39;22.20;99.90
19999;DHT22;10160;50.926;4.374;2023-08-12T10:35:05;22.20;99.90
19999;DHT22;10160;50.926;4.374;2023-08-12T10:37:33;22.10;99.90
19999;DHT22;10160;50.926;4.374;2023-08-12T10:40:21;22.20;99.90
19999;DHT22;10160;50.926;4.374;2023-08-12T10:42:54;22.70;99.90
19999;DHT22;10160;50.926;4.374;2023-08-12T10:45:22;22.70;99.90
19999;DHT22;10160;50.926;4.374;2023-08-12T10:47:49;22.90;99.90
19999;DHT22;10160;50.926;4.374;2023-08-12T10:52:43;23.60;99.90
19999;DHT22;10160;50.926;4.374;2023-08-12T10:55:18;23.70;99.90
19999;DHT22;10160;50.926;4.374;2023-08-12T10:57:44;23.90;99.90
19999;DHT22;10160;50.926;4.374;2023-08-12T11:00:16;24.00;99.90
19999;DHT22;10160;50.926;4.374;2023-08-12T11:02:53;23.90;99.90
19999;DHT22;10160;50.926;4.374;2023-08-12T11:05:19;23.90;99.90
19999;DHT22;10160;50.926;4.374;2023-08-12T11:08:01;24.30;99.90
19999;DHT22;10160;50.926;4.374;2023-08-12T11:10:30;24.00;99.90
19999;DHT22;10160;50.926;4.374;2023-08-12T11:13:02;24.40;99.90
19999;DHT22;10160;50.926;4.374;2023-08-12T11:15:32;24.70;99.90
19999;DHT22;10160;50.926;4.374;2023-08-12T11:17:58;24.40;99.90
19999;DHT22;10160;50.926;4.374;2023-08-12T11:20:28;24.40;99.90
19999;DHT22;10160;50.926;4.374;2023-08-12T11:22:57;24.30;99.90
19999;DHT22;10160;50.926;4.374;2023-08-12T11:25:30;24.20;99.90
19999;DHT22;10160;50.926;4.374;2023-08-12T11:27:59;24.40;99.90
19999;DHT22;10160;50.926;4.374;2023-08-12T11:30:28;24.10;99.90
19999;DHT22;10160;50.926;4.374;2023-08-12T11:32:55;24.30;99.90
19999;DHT22;10160;50.926;4.374;2023-08-12T11:35:23;24.30;99.90
19999;DHT22;10160;50.926;4.374;2023-08-12T11:37:53;24.40;99.90
19999;DHT22;10160;50.926;4.374;2023-08-12T11:40:20;24.60;99.90
19999;DHT22;10160;50.926;4.374;2023-08-12T11:42:48;24.90;99.90
19999;DHT22;10160;50.926;4.374;2023-08-12T11:45:20;25.00;99.90
19999;DHT22;10160;50.926;4.374;2023-08-12T11:47:46;24.70;99.90
19999;DHT22;10160;50.926;4.374;2023-08-12T11:50:26;24.40;99.90
19999;DHT22;10160;50.926;4.374;2023-08-12T11:52:56;24.60;99.90
19999;DHT22;10160;50.926;4.374;2023-08-12T11:55:22;24.30;99.90
19999;DHT22;10160;50.926;4.374;2023-08-12T11:57:47;24.90;99.90
19999;DHT22;10160;50.926;4.374;2023-08-12T12:00:13;25.40;99.90
19999;DHT22;10160;50.926;4.374;2023-08-12T12:02:41;25.90;99.90
19999;DHT22;10160;50.926;4.374;2023-08-12T12:05:17;25.90;99.90
19999;DHT22;10160;50.926;4.374;2023-08-12T12:07:43;26.20;99.90
19999;DHT22;10160;50.926;4.374;2023-08-12T12:10:19;25.70;99.90
19999;DHT22;10160;50.926;4.374;2023-08-12T12:12:45;25.00;99.90
19999;DHT22;10160;50.926;4.374;2023-08-12T12:15:13;25.10;99.90
19999;DHT22;10160;50.926;4.374;2023-08-12T12:17:41;25.70;99.90
19999;DHT22;10160;50.926;4.374;2023-08-12T12:20:07;25.90;99.90
19999;DHT22;10160;50.926;4.374;2023-08-12T12:22:42;26.00;99.90
19999;DHT22;10160;50.926;4.374;2023-08-12T12:25:15;26.10;99.90
19999;DHT22;10160;50.926;4.374;2023-08-12T12:27:43;26.50;99.90
19999;DHT22;10160;50.926;4.374;2023-08-12T12:30:11;26.60;99.90
19999;DHT22;10160;50.926;4.374;2023-08-12T12:32:37;26.20;99.90
19999;DHT22;10160;50.926;4.374;2023-08-12T12:35:04;26.60;99.90
19999;DHT22;10160;50.926;4.374;2023-08-12T12:37:32;26.20;99.90
19999;DHT22;10160;50.926;4.374;2023-08-12T12:39:58;25.90;99.90
19999;DHT22;10160;50.926;4.374;2023-08-12T12:42:24;25.90;99.90
19999;DHT22;10160;50.926;4.374;2023-08-12T12:44:55;26.40;99.90
19999;DHT22;10160;50.926;4.374;2023-08-12T12:47:24;26.70;99.90
19999;DHT22;10160;50.926;4.374;2023-08-12T12:49:50;26.20;99.90
19999;DHT22;10160;50.926;4.374;2023-08-12T12:52:18;25.80;99.90
19999;DHT22;10160;50.926;4.374;2023-08-12T12:54:50;25.70;99.90
19999;DHT22;10160;50.926;4.374;2023-08-12T12:57:16;25.30;99.90
19999;DHT22;10160;50.926;4.374;2023-08-12T12:59:41;25.30;99.90
19999;DHT22;10160;50.926;4.374;2023-08-12T13:02:07;25.60;99.90
19999;DHT22;10160;50.926;4.374;2023-08-12T13:04:33;25.90;99.90
19999;DHT22;10160;50.926;4.374;2023-08-12T13:06:58;25.90;99.90
19999;DHT22;10160;50.926;4.374;2023-08-12T13:09:24;25.50;99.90
19999;DHT22;10160;50.926;4.374;2023-08-12T13:11:50;25.30;99.90
19999;DHT22;10160;50.926;4.374;2023-08-12T13:14:15;25.60;99.90
19999;DHT22;10160;50.926;4.374;2023-08-12T13:16:44;26.20;99.90
19999;DHT22;10160;50.926;4.374;2023-08-12T13:19:09;26.60;99.90
19999;DHT22;10160;50.926;4.374;2023-08-12T13:21:35;27.00;99.90
19999;DHT22;10160;50.926;4.374;2023-08-12T13:24:01;27.10;99.90
19999;DHT22;10160;50.926;4.374;2023-08-12T13:26:29;26.90;99.90
19999;DHT22;10160;50.926;4.374;2023-08-12T13:28:54;26.50;99.90
19999;DHT22;10160;50.926;4.374;2023-08-12T13:31:20;26.20;99.90
19999;DHT22;10160;50.926;4.374;2023-08-12T13:33:46;26.50;99.90
19999;DHT22;10160;50.926;4.374;2023-08-12T13:36:12;26.30;99.90
19999;DHT22;10160;50.926;4.374;2023-08-12T13:38:37;25.80;99.90
19999;DHT22;10160;50.926;4.374;2023-08-12T13:41:03;25.30;99.90
19999;DHT22;10160;50.926;4.374;2023-08-12T13:43:32;25.40;99.90
19999;DHT22;10160;50.926;4.374;2023-08-12T13:46:00;25.60;99.90
19999;DHT22;10160;50.926;4.374;2023-08-12T13:48:25;25.80;99.90
19999;DHT22;10160;50.926;4.374;2023-08-12T13:50:55;25.60;99.90
19999;DHT22;10160;50.926;4.374;2023-08-12T13:53:21;25.60;99.90
19999;DHT22;10160;50.926;4.374;2023-08-12T13:55:52;25.60;99.90
19999;DHT22;10160;50.926;4.374;2023-08-12T13:58:17;25.50;99.90
19999;DHT22;10160;50.926;4.374;2023-08-12T14:00:46;25.70;99.90
19999;DHT22;10160;50.926;4.374;2023-08-12T14:03:12;26.10;99.90
19999;DHT22;10160;50.926;4.374;2023-08-12T14:05:37;26.50;99.90
19999;DHT22;10160;50.926;4.374;2023-08-12T14:08:06;26.30;99.90
19999;DHT22;10160;50.926;4.374;2023-08-12T14:10:31;25.90;99.90
19999;DHT22;10160;50.926;4.374;2023-08-12T14:12:57;25.70;99.90
19999;DHT22;10160;50.926;4.374;2023-08-12T14:15:23;25.50;99.90
19999;DHT22;10160;50.926;4.374;2023-08-12T14:17:48;25.40;99.90
19999;DHT22;10160;50.926;4.374;2023-08-12T14:20:14;25.30;99.90
19999;DHT22;10160;50.926;4.374;2023-08-12T14:22:41;25.60;99.90
19999;DHT22;10160;50.926;4.374;2023-08-12T14:25:07;25.90;99.90
19999;DHT22;10160;50.926;4.374;2023-08-12T14:27:36;26.00;99.90
19999;DHT22;10160;50.926;4.374;2023-08-12T14:30:02;25.90;99.90
19999;DHT22;10160;50.926;4.374;2023-08-12T14:32:28;25.60;99.90
19999;DHT22;10160;50.926;4.374;2023-08-12T14:34:54;25.70;99.90
19999;DHT22;10160;50.926;4.374;2023-08-12T14:37:19;26.00;99.90
19999;DHT22;10160;50.926;4.374;2023-08-12T14:39:46;26.20;99.90
19999;DHT22;10160;50.926;4.374;2023-08-12T14:42:11;26.50;99.90
19999;DHT22;10160;50.926;4.374;2023-08-12T14:44:37;26.50;99.90
19999;DHT22;10160;50.926;4.374;2023-08-12T14:47:03;26.20;99.90
19999;DHT22;10160;50.926;4.374;2023-08-12T14:49:32;26.10;99.90
19999;DHT22;10160;50.926;4.374;2023-08-12T14:51:57;25.90;99.90
19999;DHT22;10160;50.926;4.374;2023-08-12T14:54:23;25.90;99.90
19999;DHT22;10160;50.926;4.374;2023-08-12T14:56:48;26.10;99.90
19999;DHT22;10160;50.926;4.374;2023-08-12T14:59:17;26.10;99.90
19999;DHT22;10160;50.926;4.374;2023-08-12T15:01:43;25.80;99.90
19999;DHT22;10160;50.926;4.374;2023-08-12T15:04:08;25.80;99.90
19999;DHT22;10160;50.926;4.374;2023-08-12T15:06:34;25.70;99.90
19999;DHT22;10160;50.926;4.374;2023-08-12T15:09:00;25.90;99.90
19999;DHT22;10160;50.926;4.374;2023-08-12T15:11:25;26.10;99.90
19999;DHT22;10160;50.926;4.374;2023-08-12T15:14:03;26.20;99.90
19999;DHT22;10160;50.926;4.374;2023-08-12T15:16:28;26.20;99.90
19999;DHT22;10160;50.926;4.374;2023-08-12T15:18:54;26.20;99.90
19999;DHT22;10160;50.926;4.374;2023-08-12T15:21:20;26.50;99.90
19999;DHT22;10160;50.926;4.374;2023-08-12T15:23:51;26.40;99.90
19999;DHT22;10160;50.926;4.374;2023-08-12T15:26:18;26.10;99.90
19999;DHT22;10160;50.926;4.374;2023-08-12T15:28:44;26.00;99.90
19999;DHT22;10160;50.926;4.374;2023-08-12T15:31:11;26.20;99.90
19999;DHT22;10160;50.926;4.374;2023-08-12T15:33:40;26.10;99.90
19999;DHT22;10160;50.926;4.374;2023-08-12T15:36:07;25.80;99.90